Time;durP1;ratioP1;P1;durP2;ratioP2;P2;SDS_P1;SDS_P2;PMS_P1;PMS_P2;Temp;Humidity;BMP_temperature;BMP_pressure;BME280_temperature;BME280_humidity;BME280_pressure;Samples;Min_cycle;Max_cycle;Signal;HPM_P1;HPM_P2
2024/03/19 00:02:21;;;;;;;11.98;6.15;;;;;;;;;;5115097;28;20038;-66
2024/03/19 00:05:07;;;;;;;13.40;6.03;;;;;;;;;;5115242;28;20405;-67
2024/03/19 00:07:53;;;;;;;11.63;5.30;;;;;;;;;;5115772;28;20029;-67
2024/03/19 00:10:38;;;;;;;13.52;5.45;;;;;;;;;;5115969;28;20023;-67
2024/03/19 00:13:24;;;;;;;16.02;7.13;;;;;;;;;;5101162;28;20020;-67
2024/03/19 00:16:09;;;;;;;14.88;5.80;;;;;;;;;;5107234;28;20024;-67
2024/03/19 00:18:55;;;;;;;16.58;6.45;;;;;;;;;;5115115;28;20023;-67
2024/03/19 00:21:41;;;;;;;12.70;6.13;;;;;;;;;;5115516;28;20024;-66
2024/03/19 00:24:26;;;;;;;12.15;5.85;;;;;;;;;;5114387;28;20495;-66
2024/03/19 00:27:12;;;;;;;13.43;6.55;;;;;;;;;;5114764;28;20036;-67
2024/03/19 00:29:58;;;;;;;16.05;6.22;;;;;;;;;;5114592;28;20084;-67
2024/03/19 00:32:44;;;;;;;17.48;6.85;;;;;;;;;;5114717;28;20106;-67
2024/03/19 00:35:30;;;;;;;17.42;6.50;;;;;;;;;;5115273;28;20024;-66
2024/03/19 00:38:15;;;;;;;15.18;7.00;;;;;;;;;;5114194;28;20073;-66
2024/03/19 00:41:01;;;;;;;14.73;6.22;;;;;;;;;;5114959;28;20239;-67
2024/03/19 00:43:46;;;;;;;14.50;6.40;;;;;;;;;;5114663;28;20499;-66
2024/03/19 00:46:32;;;;;;;16.00;7.60;;;;;;;;;;5114412;28;20596;-66
2024/03/19 00:49:18;;;;;;;23.08;7.95;;;;;;;;;;5114041;28;20114;-67
2024/03/19 00:52:04;;;;;;;20.25;8.20;;;;;;;;;;5113572;28;20028;-66
2024/03/19 00:54:49;;;;;;;19.45;8.00;;;;;;;;;;5114607;28;20016;-66
2024/03/19 00:57:35;;;;;;;24.73;8.15;;;;;;;;;;5114308;28;20519;-67
2024/03/19 01:00:22;;;;;;;17.83;7.47;;;;;;;;;;5094962;28;20031;-66
2024/03/19 01:03:08;;;;;;;18.05;7.60;;;;;;;;;;5093481;28;20043;-66
2024/03/19 01:05:54;;;;;;;15.52;7.82;;;;;;;;;;5093167;28;20020;-67
2024/03/19 01:08:40;;;;;;;19.98;9.52;;;;;;;;;;5094818;28;20024;-66
2024/03/19 01:11:25;;;;;;;20.33;8.32;;;;;;;;;;5098162;28;20026;-66
2024/03/19 01:14:11;;;;;;;27.63;8.82;;;;;;;;;;5093513;28;20514;-66
2024/03/19 01:16:57;;;;;;;20.77;8.77;;;;;;;;;;5092728;28;20034;-67
2024/03/19 01:19:42;;;;;;;21.25;8.50;;;;;;;;;;5094296;28;20043;-67
2024/03/19 01:22:28;;;;;;;19.20;8.88;;;;;;;;;;5092445;28;20055;-66
2024/03/19 01:25:14;;;;;;;21.50;7.90;;;;;;;;;;5093417;28;20481;-67
2024/03/19 01:27:59;;;;;;;16.40;6.70;;;;;;;;;;5105953;28;20023;-67
2024/03/19 01:30:45;;;;;;;19.10;7.28;;;;;;;;;;5112677;28;20061;-67
2024/03/19 01:33:30;;;;;;;26.20;9.82;;;;;;;;;;5113177;28;20038;-66
2024/03/19 01:36:16;;;;;;;21.88;8.57;;;;;;;;;;5113071;28;20485;-67
2024/03/19 01:39:02;;;;;;;22.77;8.32;;;;;;;;;;5104822;28;20051;-67
2024/03/19 01:41:49;;;;;;;22.52;8.30;;;;;;;;;;5092320;28;20024;-66
2024/03/19 01:44:35;;;;;;;27.05;8.32;;;;;;;;;;5079999;28;20027;-66
2024/03/19 01:47:20;;;;;;;25.20;9.10;;;;;;;;;;5094264;28;20405;-66
2024/03/19 01:50:08;;;;;;;19.00;8.45;;;;;;;;;;5079300;28;20059;-66
2024/03/19 01:52:54;;;;;;;23.75;8.50;;;;;;;;;;5083010;28;20032;-67
2024/03/19 01:55:40;;;;;;;22.88;8.32;;;;;;;;;;5092706;28;20020;-66
2024/03/19 01:58:28;;;;;;;24.15;8.77;;;;;;;;;;5093488;28;20016;-67
2024/03/19 02:01:15;;;;;;;26.30;8.82;;;;;;;;;;5078410;28;20012;-66
2024/03/19 02:04:01;;;;;;;31.10;8.15;;;;;;;;;;5093383;28;20024;-66
2024/03/19 02:06:47;;;;;;;18.20;7.90;;;;;;;;;;5092544;28;20024;-67
2024/03/19 02:09:32;;;;;;;26.35;8.90;;;;;;;;;;5078631;28;20557;-66
2024/03/19 02:12:19;;;;;;;29.70;9.98;;;;;;;;;;5092576;28;20450;-67
2024/03/19 02:15:05;;;;;;;25.50;8.45;;;;;;;;;;5093200;28;20497;-67
2024/03/19 02:17:51;;;;;;;17.75;7.57;;;;;;;;;;5092199;28;20028;-67
2024/03/19 02:20:37;;;;;;;22.85;8.57;;;;;;;;;;5092752;28;20032;-67
2024/03/19 02:23:22;;;;;;;22.17;8.45;;;;;;;;;;5096934;28;20448;-67
2024/03/19 02:26:08;;;;;;;18.63;8.73;;;;;;;;;;5103716;28;20020;-66
2024/03/19 02:28:54;;;;;;;23.73;8.75;;;;;;;;;;5093625;28;20024;-66
2024/03/19 02:31:40;;;;;;;19.08;8.57;;;;;;;;;;5092174;28;20036;-66
2024/03/19 02:34:25;;;;;;;22.08;8.55;;;;;;;;;;5112221;28;20035;-66
2024/03/19 02:37:11;;;;;;;21.80;8.82;;;;;;;;;;5112998;28;20072;-66
2024/03/19 02:39:57;;;;;;;18.40;7.85;;;;;;;;;;5112136;28;20023;-66
2024/03/19 02:42:43;;;;;;;18.52;7.75;;;;;;;;;;5101645;28;20064;-66
2024/03/19 02:46:20;;;;;;;18.42;6.97;;;;;;;;;;5111329;28;20023;-66
2024/03/19 02:49:05;;;;;;;18.40;7.15;;;;;;;;;;5112219;28;20024;-66
2024/03/19 02:51:51;;;;;;;19.60;7.57;;;;;;;;;;5113021;28;20023;-67
2024/03/19 02:54:37;;;;;;;25.13;7.82;;;;;;;;;;5112111;28;20023;-67
2024/03/19 02:57:23;;;;;;;16.75;7.05;;;;;;;;;;5112162;28;20027;-67
2024/03/19 03:00:09;;;;;;;23.00;7.88;;;;;;;;;;5112663;28;20480;-67
2024/03/19 03:02:55;;;;;;;16.40;7.60;;;;;;;;;;5112104;28;20027;-67
2024/03/19 03:05:44;;;;;;;18.27;8.32;;;;;;;;;;5111158;28;20020;-66
2024/03/19 03:08:30;;;;;;;19.27;8.82;;;;;;;;;;5112704;28;20028;-66
2024/03/19 03:11:15;;;;;;;17.85;7.70;;;;;;;;;;5112617;28;20031;-66
2024/03/19 03:14:01;;;;;;;22.88;7.95;;;;;;;;;;5112903;28;20027;-66
2024/03/19 03:16:47;;;;;;;25.08;8.35;;;;;;;;;;5111266;28;20062;-66
2024/03/19 03:19:32;;;;;;;24.38;7.95;;;;;;;;;;5112934;28;20106;-66
2024/03/19 03:22:18;;;;;;;16.77;7.60;;;;;;;;;;5111926;28;20405;-66
2024/03/19 03:25:08;;;;;;;17.65;6.68;;;;;;;;;;5111615;28;20405;-66
2024/03/19 03:27:54;;;;;;;19.95;7.40;;;;;;;;;;5098987;28;20030;-66
2024/03/19 03:30:40;;;;;;;14.93;5.97;;;;;;;;;;5101686;28;20024;-66
2024/03/19 03:33:26;;;;;;;17.73;6.72;;;;;;;;;;5114748;28;20102;-66
2024/03/19 03:36:12;;;;;;;17.77;6.95;;;;;;;;;;5115392;28;20054;-66
2024/03/19 03:38:58;;;;;;;22.45;8.02;;;;;;;;;;5115266;28;20094;-67
2024/03/19 03:41:44;;;;;;;20.67;7.43;;;;;;;;;;5113781;28;20020;-66
2024/03/19 03:44:29;;;;;;;19.55;7.25;;;;;;;;;;5114191;28;20504;-66
2024/03/19 03:47:15;;;;;;;14.93;8.52;;;;;;;;;;5115064;28;20049;-66
2024/03/19 03:50:01;;;;;;;18.83;7.15;;;;;;;;;;5100560;28;20039;-66
2024/03/19 03:52:47;;;;;;;13.85;7.78;;;;;;;;;;5115207;28;20081;-66
2024/03/19 03:55:33;;;;;;;19.23;7.90;;;;;;;;;;5114398;28;20023;-66
2024/03/19 03:58:18;;;;;;;18.00;6.80;;;;;;;;;;5114550;28;20016;-66
2024/03/19 04:01:04;;;;;;;18.58;7.07;;;;;;;;;;5114501;28;20023;-66
2024/03/19 04:03:49;;;;;;;16.00;6.63;;;;;;;;;;5113813;28;20404;-66
2024/03/19 04:06:36;;;;;;;16.80;7.30;;;;;;;;;;5114506;28;20023;-66
2024/03/19 04:09:21;;;;;;;16.15;6.15;;;;;;;;;;5113857;28;20019;-66
2024/03/19 04:12:08;;;;;;;14.15;5.65;;;;;;;;;;5114270;28;20032;-66
2024/03/19 04:14:53;;;;;;;18.45;6.97;;;;;;;;;;5114525;28;20031;-66
2024/03/19 04:17:40;;;;;;;18.25;7.05;;;;;;;;;;5105137;28;20039;-66
2024/03/19 04:20:25;;;;;;;15.65;6.78;;;;;;;;;;5101564;28;20446;-66
2024/03/19 04:23:11;;;;;;;15.50;7.18;;;;;;;;;;5113544;28;20031;-66
2024/03/19 04:25:57;;;;;;;14.02;6.75;;;;;;;;;;5113209;28;20023;-66
2024/03/19 04:28:42;;;;;;;12.73;6.75;;;;;;;;;;5113302;28;20057;-66
2024/03/19 04:31:28;;;;;;;19.45;7.35;;;;;;;;;;5099429;28;20051;-66
2024/03/19 04:34:11;;;;;;;16.45;7.45;;;;;;;;;;5090138;27;20906;-67
2024/03/19 04:36:57;;;;;;;19.48;6.25;;;;;;;;;;5089558;28;20043;-67
2024/03/19 04:39:42;;;;;;;18.85;7.05;;;;;;;;;;5089078;28;20028;-67
2024/03/19 04:42:29;;;;;;;17.75;8.02;;;;;;;;;;5089772;28;20016;-67
2024/03/19 04:45:14;;;;;;;13.95;7.13;;;;;;;;;;5121364;28;20019;-67
2024/03/19 04:48:00;;;;;;;16.90;7.38;;;;;;;;;;5130498;28;20024;-67
2024/03/19 04:50:46;;;;;;;12.38;5.93;;;;;;;;;;5130637;28;20190;-67
2024/03/19 04:53:31;;;;;;;11.95;6.72;;;;;;;;;;5129753;28;20015;-67
2024/03/19 04:56:18;;;;;;;12.13;6.80;;;;;;;;;;5130599;28;20132;-67
2024/03/19 04:59:04;;;;;;;18.25;6.68;;;;;;;;;;5115322;28;20032;-67
2024/03/19 05:01:49;;;;;;;15.25;6.80;;;;;;;;;;5129883;28;20051;-67
2024/03/19 05:04:35;;;;;;;16.55;6.90;;;;;;;;;;5131265;28;20080;-67
2024/03/19 05:07:20;;;;;;;15.88;7.20;;;;;;;;;;5128626;28;20019;-67
2024/03/19 05:10:07;;;;;;;16.70;6.90;;;;;;;;;;5130638;28;20027;-67
2024/03/19 05:12:53;;;;;;;11.50;6.75;;;;;;;;;;5128725;28;20023;-67
2024/03/19 05:15:39;;;;;;;15.60;6.85;;;;;;;;;;5128731;28;20028;-67
2024/03/19 05:18:24;;;;;;;11.80;6.13;;;;;;;;;;5130033;28;20023;-67
2024/03/19 05:21:10;;;;;;;12.48;6.32;;;;;;;;;;5128804;28;20404;-67
2024/03/19 05:23:55;;;;;;;13.65;7.57;;;;;;;;;;5130213;27;20023;-67
2024/03/19 05:26:41;;;;;;;14.25;6.38;;;;;;;;;;5128342;28;20055;-67
2024/03/19 05:29:27;;;;;;;11.52;7.50;;;;;;;;;;5128955;28;20023;-67
2024/03/19 05:32:13;;;;;;;14.35;6.05;;;;;;;;;;5127938;28;20437;-67
2024/03/19 05:34:58;;;;;;;16.15;7.20;;;;;;;;;;5128681;28;20061;-67
2024/03/19 05:37:44;;;;;;;18.60;6.30;;;;;;;;;;5128311;28;20026;-67
2024/03/19 05:40:31;;;;;;;9.25;5.78;;;;;;;;;;5127639;28;20019;-67
2024/03/19 05:43:16;;;;;;;12.73;6.03;;;;;;;;;;5128187;28;20058;-67
2024/03/19 05:46:02;;;;;;;14.95;5.90;;;;;;;;;;5114359;28;20508;-68
2024/03/19 05:48:48;;;;;;;16.83;8.20;;;;;;;;;;5115185;28;20024;-67
2024/03/19 05:51:33;;;;;;;13.93;6.05;;;;;;;;;;5114652;28;20020;-68
2024/03/19 05:54:19;;;;;;;14.68;5.78;;;;;;;;;;5113608;28;20028;-67
2024/03/19 05:57:05;;;;;;;12.32;6.25;;;;;;;;;;5100233;28;20467;-67
2024/03/19 05:59:50;;;;;;;12.15;6.00;;;;;;;;;;5105821;28;20098;-67
2024/03/19 06:02:36;;;;;;;13.00;6.07;;;;;;;;;;5108661;28;20023;-67
2024/03/19 06:05:22;;;;;;;12.48;7.65;;;;;;;;;;5093179;28;20020;-67
2024/03/19 06:08:08;;;;;;;11.80;6.28;;;;;;;;;;5093244;28;20374;-67
2024/03/19 06:10:55;;;;;;;11.85;5.90;;;;;;;;;;5113008;28;20028;-67
2024/03/19 06:13:40;;;;;;;11.30;5.70;;;;;;;;;;5113494;28;20032;-67
2024/03/19 06:16:26;;;;;;;13.98;6.18;;;;;;;;;;5115715;28;20036;-67
2024/03/19 06:19:11;;;;;;;14.05;6.72;;;;;;;;;;5094569;28;20443;-67
2024/03/19 06:21:57;;;;;;;12.65;6.00;;;;;;;;;;5092788;28;20072;-67
2024/03/19 06:24:43;;;;;;;10.70;5.88;;;;;;;;;;5092936;28;20074;-67
2024/03/19 06:27:28;;;;;;;9.57;5.30;;;;;;;;;;5098613;28;20153;-67
2024/03/19 06:30:14;;;;;;;11.48;5.97;;;;;;;;;;5093118;28;20054;-67
2024/03/19 06:33:00;;;;;;;13.60;7.22;;;;;;;;;;5092885;28;20024;-67
2024/03/19 06:35:48;;;;;;;10.43;6.78;;;;;;;;;;5092882;28;20028;-67
2024/03/19 06:38:34;;;;;;;15.40;5.65;;;;;;;;;;5094007;28;20032;-67
2024/03/19 06:41:20;;;;;;;9.40;5.97;;;;;;;;;;5093323;28;20047;-67
2024/03/19 06:44:05;;;;;;;14.52;5.82;;;;;;;;;;5092951;28;20076;-67
2024/03/19 06:46:51;;;;;;;10.80;5.65;;;;;;;;;;5111660;28;20489;-67
2024/03/19 06:49:36;;;;;;;12.23;5.97;;;;;;;;;;5112680;28;20405;-67
2024/03/19 06:52:22;;;;;;;10.35;4.95;;;;;;;;;;5113114;28;20015;-67
2024/03/19 06:55:08;;;;;;;8.23;4.78;;;;;;;;;;5112036;28;20062;-67
2024/03/19 06:57:54;;;;;;;14.18;5.80;;;;;;;;;;5111638;28;20092;-68
2024/03/19 07:00:40;;;;;;;15.48;6.93;;;;;;;;;;5112971;28;20507;-67
2024/03/19 07:03:26;;;;;;;9.40;5.45;;;;;;;;;;5112623;28;20473;-67
2024/03/19 07:06:11;;;;;;;13.10;5.93;;;;;;;;;;5112806;28;20089;-67
2024/03/19 07:08:57;;;;;;;12.85;5.93;;;;;;;;;;5112341;28;20020;-67
2024/03/19 07:11:42;;;;;;;8.43;5.15;;;;;;;;;;5112632;28;20020;-67
2024/03/19 07:14:28;;;;;;;9.60;5.40;;;;;;;;;;5112921;28;20095;-67
2024/03/19 07:17:15;;;;;;;9.27;5.47;;;;;;;;;;5113387;28;20084;-68
2024/03/19 07:20:00;;;;;;;9.40;4.90;;;;;;;;;;5112572;28;20477;-67
2024/03/19 07:22:47;;;;;;;9.95;5.25;;;;;;;;;;5111702;28;20019;-67
2024/03/19 07:25:33;;;;;;;13.25;6.13;;;;;;;;;;5101576;28;20489;-67
2024/03/19 07:28:19;;;;;;;11.45;5.22;;;;;;;;;;5113417;28;20027;-67
2024/03/19 07:31:06;;;;;;;10.43;5.90;;;;;;;;;;5099441;28;20509;-67
2024/03/19 07:33:51;;;;;;;12.55;5.18;;;;;;;;;;5093260;28;20023;-67
2024/03/19 07:36:39;;;;;;;8.82;5.45;;;;;;;;;;5092351;28;20035;-67
2024/03/19 07:39:26;;;;;;;8.43;5.10;;;;;;;;;;5099843;28;20027;-67
2024/03/19 07:42:11;;;;;;;9.70;5.72;;;;;;;;;;5091079;28;20366;-67
2024/03/19 07:44:57;;;;;;;8.73;5.50;;;;;;;;;;5109283;28;20024;-68
2024/03/19 07:47:43;;;;;;;10.57;5.80;;;;;;;;;;5111942;28;20030;-67
2024/03/19 07:50:32;;;;;;;11.50;6.38;;;;;;;;;;5091368;28;20035;-67
2024/03/19 07:53:18;;;;;;;10.68;5.30;;;;;;;;;;5091018;28;20576;-67
2024/03/19 07:56:05;;;;;;;7.38;4.88;;;;;;;;;;5095550;28;20378;-67
2024/03/19 07:58:50;;;;;;;14.48;5.80;;;;;;;;;;5091475;28;20050;-68
2024/03/19 08:01:36;;;;;;;12.52;5.90;;;;;;;;;;5091600;28;20034;-68
2024/03/19 08:04:21;;;;;;;9.20;5.07;;;;;;;;;;5103771;28;20481;-67
2024/03/19 08:07:07;;;;;;;8.75;5.25;;;;;;;;;;5110948;28;20478;-67
2024/03/19 08:09:55;;;;;;;8.57;5.07;;;;;;;;;;5104264;28;20023;-67
2024/03/19 08:12:40;;;;;;;9.45;5.38;;;;;;;;;;5091071;28;20070;-67
2024/03/19 08:15:26;;;;;;;9.25;5.00;;;;;;;;;;5099240;28;20062;-68
2024/03/19 08:18:12;;;;;;;8.48;4.90;;;;;;;;;;5101857;28;20477;-67
2024/03/19 08:20:57;;;;;;;7.78;5.10;;;;;;;;;;5111900;28;20500;-66
2024/03/19 08:23:46;;;;;;;12.50;5.93;;;;;;;;;;5109526;28;20058;-66
2024/03/19 08:26:33;;;;;;;8.50;5.53;;;;;;;;;;5095768;28;20020;-66
2024/03/19 08:29:19;;;;;;;7.25;5.03;;;;;;;;;;5089939;28;20431;-67
2024/03/19 08:32:04;;;;;;;10.50;5.30;;;;;;;;;;5093686;28;20032;-66
2024/03/19 08:34:50;;;;;;;10.38;6.65;;;;;;;;;;5091009;28;20028;-66
2024/03/19 08:37:36;;;;;;;9.23;5.25;;;;;;;;;;5100161;28;20024;-66
2024/03/19 08:40:22;;;;;;;8.27;4.88;;;;;;;;;;5091367;28;20409;-66
2024/03/19 08:43:07;;;;;;;11.68;5.68;;;;;;;;;;5105328;28;20080;-67
2024/03/19 08:45:53;;;;;;;10.15;6.22;;;;;;;;;;5112258;28;20023;-66
2024/03/19 08:48:39;;;;;;;10.63;5.47;;;;;;;;;;5112003;28;20430;-67
2024/03/19 08:51:24;;;;;;;9.07;5.50;;;;;;;;;;5109529;28;20035;-66
2024/03/19 08:54:11;;;;;;;8.32;5.05;;;;;;;;;;5111109;28;20054;-66
2024/03/19 08:56:56;;;;;;;7.82;5.07;;;;;;;;;;5100407;28;20024;-66
2024/03/19 08:59:42;;;;;;;10.02;4.95;;;;;;;;;;5091139;28;20020;-66
2024/03/19 09:02:28;;;;;;;10.30;5.63;;;;;;;;;;5106638;28;20047;-66
2024/03/19 09:05:13;;;;;;;9.90;5.60;;;;;;;;;;5111794;28;20106;-65
2024/03/19 09:07:59;;;;;;;10.35;5.68;;;;;;;;;;5111227;28;20050;-66
2024/03/19 09:10:45;;;;;;;14.15;5.82;;;;;;;;;;5111485;28;20030;-65
2024/03/19 09:13:30;;;;;;;8.73;5.47;;;;;;;;;;5111202;28;20046;-66
2024/03/19 09:16:16;;;;;;;12.05;6.07;;;;;;;;;;5111650;28;20508;-66
2024/03/19 09:19:03;;;;;;;10.30;6.22;;;;;;;;;;5111308;28;20046;-66
2024/03/19 09:21:49;;;;;;;8.48;4.95;;;;;;;;;;5100223;28;20023;-66
2024/03/19 09:24:35;;;;;;;13.43;5.75;;;;;;;;;;5114597;28;20016;-65
2024/03/19 09:27:20;;;;;;;8.82;6.15;;;;;;;;;;5114125;28;20027;-67
2024/03/19 09:30:10;;;;;;;16.90;7.38;;;;;;;;;;5114602;28;20088;-66
2024/03/19 09:32:56;;;;;;;9.98;6.25;;;;;;;;;;5114946;28;20034;-66
2024/03/19 09:35:42;;;;;;;13.38;6.30;;;;;;;;;;5113576;28;20497;-66
2024/03/19 09:38:27;;;;;;;11.68;5.93;;;;;;;;;;5114231;28;20092;-66
2024/03/19 09:41:14;;;;;;;11.27;4.97;;;;;;;;;;5114033;28;20103;-66
2024/03/19 09:44:00;;;;;;;9.48;5.50;;;;;;;;;;5113829;28;20381;-66
2024/03/19 09:46:46;;;;;;;11.27;5.97;;;;;;;;;;5100295;28;20073;-66
2024/03/19 09:49:32;;;;;;;11.70;5.90;;;;;;;;;;5114812;28;20497;-66
2024/03/19 09:52:19;;;;;;;12.48;6.13;;;;;;;;;;5094547;28;20397;-67
2024/03/19 09:55:06;;;;;;;13.98;6.28;;;;;;;;;;5100714;28;20400;-65
2024/03/19 09:57:54;;;;;;;11.38;5.72;;;;;;;;;;5107959;28;20043;-66
2024/03/19 10:00:44;;;;;;;10.43;6.00;;;;;;;;;;5115799;28;20028;-66
2024/03/19 10:03:30;;;;;;;13.85;6.88;;;;;;;;;;5115487;28;20015;-66
2024/03/19 10:06:16;;;;;;;14.65;5.57;;;;;;;;;;5114515;28;20549;-66
2024/03/19 10:09:02;;;;;;;12.48;6.55;;;;;;;;;;5095604;28;20467;-66
2024/03/19 10:11:48;;;;;;;10.57;5.82;;;;;;;;;;5093888;28;20454;-66
2024/03/19 10:14:34;;;;;;;13.35;5.88;;;;;;;;;;5095642;28;20024;-66
2024/03/19 10:17:19;;;;;;;11.82;5.90;;;;;;;;;;5103901;28;20036;-66
2024/03/19 10:20:11;;;;;;;9.93;6.30;;;;;;;;;;5114164;28;20023;-66
2024/03/19 10:22:56;;;;;;;14.73;6.45;;;;;;;;;;5115250;27;20420;-66
2024/03/19 10:25:42;;;;;;;11.25;6.50;;;;;;;;;;5095733;28;20035;-66
2024/03/19 10:28:28;;;;;;;14.38;6.38;;;;;;;;;;5093789;28;20016;-66
2024/03/19 10:31:15;;;;;;;14.10;6.72;;;;;;;;;;5096211;28;20381;-65
2024/03/19 10:34:01;;;;;;;14.43;6.70;;;;;;;;;;5101135;28;20031;-66
2024/03/19 10:36:51;;;;;;;13.82;6.93;;;;;;;;;;5108812;28;20028;-66
2024/03/19 10:39:38;;;;;;;14.57;6.97;;;;;;;;;;5105996;28;20111;-65
2024/03/19 10:42:26;;;;;;;19.52;6.93;;;;;;;;;;5098549;28;20077;-65
2024/03/19 10:45:18;;;;;;;13.20;7.70;;;;;;;;;;5100602;28;20036;-65
2024/03/19 10:48:04;;;;;;;15.82;7.20;;;;;;;;;;5100934;28;20032;-65
2024/03/19 10:50:50;;;;;;;14.45;6.72;;;;;;;;;;5101190;28;20035;-65
2024/03/19 10:53:36;;;;;;;16.42;6.72;;;;;;;;;;5099411;28;20023;-66
2024/03/19 10:56:24;;;;;;;14.10;6.47;;;;;;;;;;5087410;28;20035;-66
2024/03/19 10:59:13;;;;;;;13.55;6.80;;;;;;;;;;5109123;27;20051;-67
2024/03/19 11:02:06;;;;;;;15.85;8.10;;;;;;;;;;5112486;28;20594;-66
2024/03/19 11:04:56;;;;;;;15.55;7.00;;;;;;;;;;5101560;28;20371;-67
2024/03/19 11:07:45;;;;;;;;;;;;;;;;;;5110486;28;20043;-67
2024/03/19 11:10:38;;;;;;;16.83;7.28;;;;;;;;;;5113891;28;19994;-67
2024/03/19 11:13:25;;;;;;;15.15;7.78;;;;;;;;;;5102837;28;20061;-67
2024/03/19 11:16:14;;;;;;;14.80;7.38;;;;;;;;;;5113539;28;20031;-67
2024/03/19 11:18:59;;;;;;;13.00;8.48;;;;;;;;;;5113373;28;20024;-67
2024/03/19 11:21:48;;;;;;;14.85;7.88;;;;;;;;;;5113205;28;20106;-67
2024/03/19 11:24:37;;;;;;;18.55;8.32;;;;;;;;;;5113504;28;20019;-67
2024/03/19 11:27:32;;;;;;;17.38;7.75;;;;;;;;;;5113180;28;20024;-67
2024/03/19 11:30:18;;;;;;;20.02;8.90;;;;;;;;;;5113716;28;20110;-67
2024/03/19 11:33:04;;;;;;;20.90;8.73;;;;;;;;;;5098566;28;20023;-67
2024/03/19 11:35:51;;;;;;;19.75;7.82;;;;;;;;;;5070660;22;20076;-64
2024/03/19 11:38:37;;;;;;;16.35;8.65;;;;;;;;;;5053086;28;20462;-66
2024/03/19 11:41:23;;;;;;;20.02;8.25;;;;;;;;;;5053225;28;20052;-67
2024/03/19 11:44:19;;;;;;;20.00;9.20;;;;;;;;;;5056649;28;20094;-67
2024/03/19 11:47:05;;;;;;;;;;;;;;;;;;5067186;28;20028;-64
2024/03/19 11:49:51;;;;;;;18.92;9.38;;;;;;;;;;5057702;28;19915;-66
2024/03/19 11:52:37;;;;;;;19.23;9.57;;;;;;;;;;5072539;28;20025;-66
2024/03/19 11:55:22;;;;;;;18.45;8.45;;;;;;;;;;5073168;28;20024;-67
2024/03/19 11:58:10;;;;;;;17.55;8.82;;;;;;;;;;5071768;28;20453;-65
2024/03/19 12:00:55;;;;;;;19.05;8.90;;;;;;;;;;5038580;28;20031;-66
2024/03/19 12:03:41;;;;;;;21.42;10.40;;;;;;;;;;5051732;28;20087;-64
2024/03/19 12:06:27;;;;;;;20.40;9.77;;;;;;;;;;5050063;28;20032;-64
2024/03/19 12:09:13;;;;;;;19.45;8.25;;;;;;;;;;5052796;28;20505;-66
2024/03/19 12:11:59;;;;;;;21.15;8.38;;;;;;;;;;5053392;28;20454;-67
2024/03/19 12:14:45;;;;;;;23.00;9.18;;;;;;;;;;5057546;28;20405;-66
2024/03/19 12:17:32;;;;;;;23.05;9.98;;;;;;;;;;5071003;28;20017;-64
2024/03/19 12:20:18;;;;;;;23.38;9.85;;;;;;;;;;5072633;28;20500;-66
2024/03/19 12:23:04;;;;;;;17.42;8.27;;;;;;;;;;5073045;28;20020;-66
2024/03/19 12:25:50;;;;;;;20.95;8.60;;;;;;;;;;5059877;28;20452;-67
2024/03/19 12:28:39;;;;;;;22.52;9.55;;;;;;;;;;5037636;28;20025;-66
2024/03/19 12:31:35;;;;;;;22.90;9.77;;;;;;;;;;5051199;28;20024;-66
2024/03/19 12:34:37;;;;;;;17.65;8.20;;;;;;;;;;5038193;28;20117;-66
2024/03/19 12:37:23;;;;;;;18.58;8.93;;;;;;;;;;5051451;28;20028;-66
2024/03/19 12:40:13;;;;;;;22.40;8.80;;;;;;;;;;5052431;28;20021;-66
2024/03/19 12:42:58;;;;;;;21.77;8.93;;;;;;;;;;5052086;28;20017;-66
2024/03/19 12:45:44;;;;;;;20.00;8.85;;;;;;;;;;5052843;28;20032;-66
2024/03/19 12:48:30;;;;;;;18.77;8.48;;;;;;;;;;5051885;28;20557;-67
2024/03/19 12:51:15;;;;;;;18.90;8.55;;;;;;;;;;5052779;28;20052;-67
2024/03/19 12:54:01;;;;;;;19.33;8.95;;;;;;;;;;5052725;28;20028;-66
2024/03/19 12:56:47;;;;;;;20.17;9.65;;;;;;;;;;5053844;28;20025;-66
2024/03/19 12:59:33;;;;;;;16.77;9.55;;;;;;;;;;5061530;28;20067;-66
2024/03/19 13:02:19;;;;;;;20.73;9.45;;;;;;;;;;5075615;28;20055;-66
2024/03/19 13:05:05;;;;;;;17.33;8.98;;;;;;;;;;5059588;28;20029;-66
2024/03/19 13:07:53;;;;;;;17.23;9.32;;;;;;;;;;5055080;28;20028;-66
2024/03/19 13:10:38;;;;;;;19.50;9.00;;;;;;;;;;5050721;28;20072;-66
2024/03/19 13:13:24;;;;;;;20.17;9.45;;;;;;;;;;5055043;28;20075;-66
2024/03/19 13:16:10;;;;;;;18.27;8.85;;;;;;;;;;5057299;28;20053;-67
2024/03/19 13:18:56;;;;;;;18.17;9.27;;;;;;;;;;5055219;28;20028;-67
2024/03/19 13:21:41;;;;;;;21.25;10.82;;;;;;;;;;5054229;28;20036;-66
2024/03/19 13:24:27;;;;;;;21.90;9.80;;;;;;;;;;5067604;28;20027;-67
2024/03/19 13:27:13;;;;;;;17.75;9.05;;;;;;;;;;5060185;28;20027;-67
2024/03/19 13:29:59;;;;;;;22.40;8.82;;;;;;;;;;5060855;28;20033;-67
2024/03/19 13:32:44;;;;;;;19.42;8.95;;;;;;;;;;5056658;28;20087;-67
2024/03/19 13:35:30;;;;;;;18.23;9.32;;;;;;;;;;5053944;28;20035;-66
2024/03/19 13:38:15;;;;;;;18.48;8.98;;;;;;;;;;5069030;28;20031;-66
2024/03/19 13:41:01;;;;;;;21.13;9.35;;;;;;;;;;5073344;28;20024;-65
2024/03/19 13:43:47;;;;;;;18.35;9.95;;;;;;;;;;5054870;28;20099;-66
2024/03/19 13:46:33;;;;;;;18.65;8.90;;;;;;;;;;5054940;28;20028;-66
2024/03/19 13:49:27;;;;;;;19.95;10.10;;;;;;;;;;5062943;28;20086;-67
2024/03/19 13:52:13;;;;;;;19.38;8.77;;;;;;;;;;5054402;28;20027;-66
2024/03/19 13:55:00;;;;;;;19.27;10.27;;;;;;;;;;5056171;28;20447;-67
2024/03/19 13:57:46;;;;;;;24.27;9.85;;;;;;;;;;5054946;28;20032;-67
2024/03/19 14:00:33;;;;;;;18.48;8.63;;;;;;;;;;5060942;28;20032;-67
2024/03/19 14:03:19;;;;;;;21.83;10.02;;;;;;;;;;5053815;28;20099;-66
2024/03/19 14:06:06;;;;;;;14.73;8.85;;;;;;;;;;5057070;28;20021;-67
2024/03/19 14:08:54;;;;;;;22.58;8.50;;;;;;;;;;5053410;28;20031;-66
2024/03/19 14:11:40;;;;;;;20.63;9.57;;;;;;;;;;5047545;28;20117;-66
2024/03/19 14:14:27;;;;;;;23.60;10.63;;;;;;;;;;5065101;28;20538;-64
2024/03/19 14:17:13;;;;;;;22.10;8.70;;;;;;;;;;5064384;28;20031;-66
2024/03/19 14:19:59;;;;;;;20.73;10.13;;;;;;;;;;5055678;28;20032;-66
2024/03/19 14:22:45;;;;;;;26.13;9.57;;;;;;;;;;5057878;28;20402;-66
2024/03/19 14:25:33;;;;;;;21.55;9.65;;;;;;;;;;5062812;28;20033;-66
2024/03/19 14:28:20;;;;;;;26.55;10.75;;;;;;;;;;5063472;28;20028;-66
2024/03/19 14:31:05;;;;;;;21.83;10.13;;;;;;;;;;5057267;28;20458;-66
2024/03/19 14:33:51;;;;;;;21.90;9.50;;;;;;;;;;5063704;28;20094;-65
2024/03/19 14:36:37;;;;;;;21.85;9.65;;;;;;;;;;5055393;28;20028;-64
2024/03/19 14:39:23;;;;;;;21.48;10.77;;;;;;;;;;5056954;28;20033;-64
2024/03/19 14:42:09;;;;;;;21.65;9.70;;;;;;;;;;5060657;28;20033;-66
2024/03/19 14:44:56;;;;;;;21.77;9.90;;;;;;;;;;5060656;28;20089;-65
2024/03/19 14:47:42;;;;;;;28.38;10.60;;;;;;;;;;5057353;28;20524;-65
2024/03/19 14:50:28;;;;;;;19.20;9.85;;;;;;;;;;5065641;28;20029;-65
2024/03/19 14:53:15;;;;;;;21.58;11.02;;;;;;;;;;5062562;28;20516;-65
2024/03/19 14:56:01;;;;;;;21.08;10.18;;;;;;;;;;5059802;28;20032;-64
2024/03/19 14:58:47;;;;;;;19.52;11.30;;;;;;;;;;5060689;28;20020;-65
2024/03/19 15:01:33;;;;;;;28.45;9.80;;;;;;;;;;5061318;28;20363;-65
2024/03/19 15:04:19;;;;;;;19.27;10.30;;;;;;;;;;5062793;28;20025;-65
2024/03/19 15:07:04;;;;;;;22.10;10.23;;;;;;;;;;5060405;28;20048;-65
2024/03/19 15:09:50;;;;;;;21.58;10.30;;;;;;;;;;5060373;28;20049;-65
2024/03/19 15:12:35;;;;;;;26.42;10.57;;;;;;;;;;5051890;28;20036;-65
2024/03/19 15:15:21;;;;;;;26.75;11.40;;;;;;;;;;5059696;28;20037;-64
2024/03/19 15:18:07;;;;;;;25.90;12.88;;;;;;;;;;5058596;28;20025;-65
2024/03/19 15:21:00;;;;;;;22.30;11.55;;;;;;;;;;5061797;28;20024;-65
2024/03/19 15:23:46;;;;;;;25.90;12.82;;;;;;;;;;5060280;28;20099;-65
2024/03/19 15:26:32;;;;;;;24.75;11.32;;;;;;;;;;5055248;28;20035;-65
2024/03/19 15:29:18;;;;;;;25.00;12.63;;;;;;;;;;5054814;28;20029;-64
2024/03/19 15:32:04;;;;;;;27.35;11.90;;;;;;;;;;5048482;28;20382;-65
2024/03/19 15:34:50;;;;;;;22.67;11.85;;;;;;;;;;5055375;28;20047;-65
2024/03/19 15:37:36;;;;;;;30.13;12.48;;;;;;;;;;5057853;28;20032;-65
2024/03/19 15:40:21;;;;;;;22.95;12.10;;;;;;;;;;5063486;28;20029;-65
2024/03/19 15:43:07;;;;;;;23.10;11.32;;;;;;;;;;5055461;28;20024;-65
2024/03/19 15:45:52;;;;;;;22.40;10.95;;;;;;;;;;5055692;28;20032;-65
2024/03/19 15:48:39;;;;;;;24.65;10.48;;;;;;;;;;5064079;28;20398;-65
2024/03/19 15:51:24;;;;;;;24.73;11.45;;;;;;;;;;5061824;28;20025;-64
2024/03/19 15:54:10;;;;;;;27.38;11.85;;;;;;;;;;5057344;28;20051;-65
2024/03/19 15:56:56;;;;;;;25.38;10.75;;;;;;;;;;5060100;28;20025;-65
2024/03/19 15:59:42;;;;;;;25.58;11.00;;;;;;;;;;5057797;28;20033;-65
2024/03/19 16:02:27;;;;;;;25.85;12.32;;;;;;;;;;5061397;28;20040;-64
2024/03/19 16:05:14;;;;;;;16.27;9.23;;;;;;;;;;5061988;28;20021;-66
2024/03/19 16:08:00;;;;;;;26.70;10.63;;;;;;;;;;5051084;28;20055;-65
2024/03/19 16:10:47;;;;;;;23.88;11.18;;;;;;;;;;5061026;28;20055;-66
2024/03/19 16:13:33;;;;;;;28.45;10.93;;;;;;;;;;5058864;28;20505;-66
2024/03/19 16:16:19;;;;;;;25.98;11.13;;;;;;;;;;5057342;28;20183;-66
2024/03/19 16:19:05;;;;;;;21.52;10.88;;;;;;;;;;5043657;28;20029;-66
2024/03/19 16:21:51;;;;;;;24.83;12.48;;;;;;;;;;5056569;28;20056;-66
2024/03/19 16:24:37;;;;;;;20.75;11.45;;;;;;;;;;5059253;28;20501;-66